Time;durP1;ratioP1;P1;durP2;ratioP2;P2;SDS_P1;SDS_P2;PMS_P1;PMS_P2;Temp;Humidity;BMP_temperature;BMP_pressure;BME280_temperature;BME280_humidity;BME280_pressure;Samples;Min_cycle;Max_cycle;Signal;HPM_P1;HPM_P2
2023/10/10 00:01:14;;;;;;;4.40;4.20;;;22.70;48.70;;;;;;4990156;28;20469;-58
2023/10/10 00:03:42;;;;;;;3.90;3.70;;;22.70;48.70;;;;;;4990629;28;20988;-61
2023/10/10 00:06:09;;;;;;;3.80;3.60;;;22.80;48.80;;;;;;4991688;28;20464;-58
2023/10/10 00:08:40;;;;;;;4.73;4.00;;;22.80;48.80;;;;;;4996377;28;20489;-59
2023/10/10 00:11:18;;;;;;;4.10;3.87;;;22.80;48.80;;;;;;4994886;28;20456;-58
2023/10/10 00:13:52;;;;;;;3.53;3.33;;;22.80;48.90;;;;;;5004368;28;20949;-58
2023/10/10 00:16:25;;;;;;;3.60;3.40;;;22.80;48.80;;;;;;5008137;28;20444;-60
2023/10/10 00:18:50;;;;;;;4.10;3.90;;;22.80;48.80;;;;;;5008586;28;20464;-61
2023/10/10 00:21:23;;;;;;;3.77;3.57;;;22.70;48.80;;;;;;5003296;28;20476;-57
2023/10/10 00:23:54;;;;;;;4.43;4.13;;;22.80;48.90;;;;;;5011789;28;20230;-59
2023/10/10 00:26:25;;;;;;;4.10;3.90;;;22.70;48.70;;;;;;5007211;28;20481;-59
2023/10/10 00:28:55;;;;;;;4.20;3.97;;;22.70;48.70;;;;;;5001183;28;20479;-57
2023/10/10 00:31:22;;;;;;;3.50;3.30;;;22.70;48.80;;;;;;4994068;28;20469;-59
2023/10/10 00:33:51;;;;;;;3.70;3.50;;;22.70;48.80;;;;;;5009698;28;20448;-57
2023/10/10 00:36:22;;;;;;;3.77;3.53;;;22.70;48.70;;;;;;5000880;28;21916;-58
2023/10/10 00:38:57;;;;;;;4.40;4.10;;;22.70;48.70;;;;;;5006683;28;20464;-58
2023/10/10 00:41:24;;;;;;;4.13;3.93;;;22.70;48.80;;;;;;5010737;28;20471;-60
2023/10/10 00:43:49;;;;;;;3.60;3.40;;;22.70;48.70;;;;;;4995227;28;20464;-59
2023/10/10 00:46:15;;;;;;;4.20;3.90;;;22.70;48.80;;;;;;4991270;28;20449;-58
2023/10/10 00:48:44;;;;;;;3.50;3.30;;;22.70;48.80;;;;;;5001798;28;20216;-60
2023/10/10 00:51:20;;;;;;;3.97;3.77;;;22.70;48.80;;;;;;5006245;28;20228;-58
2023/10/10 00:53:45;;;;;;;4.00;3.80;;;22.70;48.70;;;;;;4996689;28;20466;-57
2023/10/10 00:56:13;;;;;;;4.27;3.87;;;22.70;48.80;;;;;;5011648;28;20467;-58
2023/10/10 00:58:39;;;;;;;3.53;3.33;;;22.80;48.90;;;;;;4994970;28;20219;-57
2023/10/10 01:01:09;;;;;;;4.13;3.83;;;22.70;48.80;;;;;;4997884;28;22197;-59
2023/10/10 01:03:57;;;;;;;4.13;3.90;;;22.80;48.90;;;;;;4993159;28;20335;-58
2023/10/10 01:06:26;;;;;;;3.80;3.60;;;22.70;48.80;;;;;;4994872;28;20463;-60
2023/10/10 01:09:20;;;;;;;4.30;4.00;;;22.80;48.90;;;;;;4995467;28;20476;-60
2023/10/10 01:11:48;;;;;;;3.87;3.67;;;22.70;48.80;;;;;;4994911;28;20541;-58
2023/10/10 01:14:26;;;;;;;4.20;3.90;;;22.70;48.80;;;;;;5015587;28;20463;-61
2023/10/10 01:16:57;;;;;;;3.90;3.70;;;22.70;48.80;;;;;;5009646;28;20805;-59
2023/10/10 01:19:29;;;;;;;3.80;3.60;;;22.70;48.80;;;;;;4993813;28;20453;-60
2023/10/10 01:21:58;;;;;;;3.77;3.50;;;22.70;48.80;;;;;;5014991;28;20509;-65
2023/10/10 01:24:31;;;;;;;4.07;3.87;;;22.70;48.80;;;;;;5004322;28;20454;-58
2023/10/10 01:27:13;;;;;;;3.73;3.53;;;22.70;48.80;;;;;;4997766;28;20537;-62
2023/10/10 01:29:49;;;;;;;3.97;3.77;;;22.70;48.80;;;;;;5008495;28;20468;-62
2023/10/10 01:32:17;;;;;;;3.73;3.53;;;22.70;48.80;;;;;;5003905;28;20468;-58
2023/10/10 01:34:43;;;;;;;3.90;3.70;;;22.70;48.80;;;;;;4994035;28;20445;-57
2023/10/10 01:37:14;;;;;;;3.60;3.40;;;22.70;48.80;;;;;;5006140;28;20453;-57
2023/10/10 01:40:16;;;;;;;3.80;3.60;;;22.70;48.80;;;;;;4995772;28;21386;-58
2023/10/10 01:42:53;;;;;;;4.40;4.20;;;22.70;48.80;;;;;;5009032;28;20818;-61
2023/10/10 01:45:26;;;;;;;4.00;3.70;;;22.70;48.80;;;;;;5006192;28;20504;-57
2023/10/10 01:48:02;;;;;;;3.90;3.70;;;22.70;48.80;;;;;;4988230;28;20979;-63
2023/10/10 01:50:30;;;;;;;3.77;3.47;;;22.70;48.80;;;;;;5011240;28;20422;-62
2023/10/10 01:53:00;;;;;;;3.43;3.23;;;22.70;48.80;;;;;;4992908;28;20481;-61
2023/10/10 01:55:26;;;;;;;3.70;3.50;;;22.70;48.80;;;;;;4999324;28;20524;-60
2023/10/10 01:57:52;;;;;;;3.60;3.40;;;22.70;48.80;;;;;;4997649;28;20494;-57
2023/10/10 02:00:36;;;;;;;4.27;4.00;;;22.70;48.80;;;;;;5003952;28;20465;-59
2023/10/10 02:03:03;;;;;;;3.60;3.40;;;22.70;48.80;;;;;;4988648;28;20613;-58
2023/10/10 02:08:01;;;;;;;3.37;3.13;;;22.70;48.90;;;;;;5009554;28;20460;-58
2023/10/10 02:10:32;;;;;;;3.93;3.73;;;22.70;48.80;;;;;;4992299;28;20473;-58
2023/10/10 02:13:04;;;;;;;3.00;2.90;;;22.70;48.80;;;;;;4999579;28;20550;-58
2023/10/10 02:15:34;;;;;;;3.33;3.13;;;22.70;48.90;;;;;;4997988;28;20544;-57
2023/10/10 02:18:12;;;;;;;3.80;3.60;;;22.70;48.80;;;;;;4991366;28;20469;-60
2023/10/10 02:23:31;;;;;;;3.73;3.53;;;22.70;48.80;;;;;;4992405;28;20445;-59
2023/10/10 02:26:03;;;;;;;3.37;3.17;;;22.70;48.80;;;;;;5004495;28;20461;-64
2023/10/10 02:28:47;;;;;;;3.60;3.40;;;22.70;48.80;;;;;;4992621;28;21029;-58
2023/10/10 02:31:15;;;;;;;3.30;3.10;;;22.70;48.80;;;;;;4997946;28;20887;-58
2023/10/10 02:33:55;;;;;;;3.27;2.97;;;22.70;48.80;;;;;;4999526;28;21002;-57
2023/10/10 02:36:30;;;;;;;3.40;3.20;;;22.70;48.80;;;;;;4994114;28;21123;-59
2023/10/10 02:39:09;;;;;;;3.80;3.60;;;22.70;48.80;;;;;;4993594;28;20491;-62
2023/10/10 02:41:48;;;;;;;3.37;3.17;;;22.70;48.80;;;;;;4992306;28;20563;-59
2023/10/10 02:44:26;;;;;;;3.73;3.53;;;22.70;48.80;;;;;;4990852;28;20458;-58
2023/10/10 02:46:53;;;;;;;4.00;3.70;;;22.70;48.80;;;;;;5007766;28;20559;-58
2023/10/10 02:49:22;;;;;;;3.77;3.47;;;22.70;48.80;;;;;;4998326;28;20533;-60
2023/10/10 02:51:48;;;;;;;3.40;3.10;;;22.70;48.80;;;;;;5007652;28;20506;-58
2023/10/10 02:59:52;;;;;;;3.43;3.23;;;22.70;48.80;;;;;;5001041;28;20603;-59
2023/10/10 03:02:40;;;;;;;3.17;2.97;;;22.70;48.80;;;;;;4988141;28;20484;-60
2023/10/10 03:05:06;;;;;;;3.87;3.67;;;22.70;48.80;;;;;;5003133;28;20959;-60
2023/10/10 03:07:32;;;;;;;3.70;3.40;;;22.70;48.90;;;;;;4997133;28;20453;-58
2023/10/10 03:12:30;;;;;;;3.70;3.50;;;22.70;48.80;;;;;;4991227;28;20492;-61
2023/10/10 03:15:12;;;;;;;4.57;4.27;;;22.70;48.90;;;;;;5007446;28;21279;-61
2023/10/10 03:17:48;;;;;;;3.13;2.93;;;22.70;48.80;;;;;;4999789;28;20463;-61
2023/10/10 03:20:25;;;;;;;3.43;3.23;;;22.70;48.80;;;;;;5011653;28;20456;-57
2023/10/10 03:25:52;;;;;;;3.70;3.50;;;22.70;48.80;;;;;;4985762;28;20469;-62
2023/10/10 03:28:20;;;;;;;3.73;3.53;;;22.70;48.80;;;;;;4999357;28;21084;-58
2023/10/10 03:31:10;;;;;;;3.20;3.00;;;22.70;48.80;;;;;;4989891;28;20454;-59
2023/10/10 05:25:13;;;;;;;3.50;3.20;;;22.70;48.60;;;;;;4994773;28;20467;-63
2023/10/10 05:27:42;;;;;;;9.77;5.53;;;22.70;48.60;;;;;;4992532;28;20439;-58
2023/10/10 05:30:39;;;;;;;3.70;3.40;;;22.70;48.40;;;;;;4984395;28;20838;-61
2023/10/10 05:33:06;;;;;;;3.50;3.20;;;22.70;48.30;;;;;;4996253;28;20501;-59
2023/10/10 05:35:34;;;;;;;3.43;3.23;;;22.70;48.30;;;;;;4991641;28;20459;-57
2023/10/10 05:38:00;;;;;;;3.50;3.23;;;22.70;48.30;;;;;;4993208;28;20474;-57
2023/10/10 05:40:27;;;;;;;3.50;3.20;;;22.70;48.40;;;;;;5004842;28;20449;-62
2023/10/10 05:42:52;;;;;;;3.33;3.13;;;22.70;48.40;;;;;;5003114;28;20766;-58
2023/10/10 05:45:19;;;;;;;3.43;3.23;;;22.70;48.40;;;;;;4991534;28;20448;-59
2023/10/10 05:47:44;;;;;;;3.60;3.40;;;22.70;48.40;;;;;;4996317;28;20218;-62
2023/10/10 05:50:10;;;;;;;3.83;3.53;;;22.70;48.40;;;;;;4990225;28;21413;-58
2023/10/10 05:52:39;;;;;;;3.80;3.50;;;22.70;48.50;;;;;;5002509;28;20250;-60
2023/10/10 05:55:10;;;;;;;3.50;3.30;;;22.70;48.40;;;;;;4995988;28;20286;-58
2023/10/10 05:57:39;;;;;;;3.80;3.57;;;22.70;48.40;;;;;;4995036;28;20465;-57
2023/10/10 06:00:13;;;;;;;3.30;3.10;;;22.70;48.40;;;;;;4994677;28;20949;-58
2023/10/10 06:02:46;;;;;;;3.43;3.23;;;22.70;48.50;;;;;;4992220;28;20472;-58
2023/10/10 06:05:16;;;;;;;3.63;3.33;;;22.70;48.40;;;;;;4993480;28;20471;-59
2023/10/10 06:07:45;;;;;;;3.40;3.20;;;22.70;48.50;;;;;;4995549;28;20461;-61
2023/10/10 06:10:15;;;;;;;3.30;3.10;;;22.70;48.50;;;;;;5002674;28;20999;-59
2023/10/10 06:12:50;;;;;;;3.67;3.47;;;22.70;48.50;;;;;;5000970;28;20476;-60
2023/10/10 06:15:17;;;;;;;3.20;3.00;;;22.70;48.50;;;;;;5003890;28;20548;-62
2023/10/10 06:17:48;;;;;;;3.07;2.87;;;22.70;48.50;;;;;;4988347;28;21140;-58
2023/10/10 06:20:21;;;;;;;3.30;3.10;;;22.70;48.50;;;;;;4986600;28;20464;-60
2023/10/10 06:22:54;;;;;;;3.40;3.20;;;22.70;48.50;;;;;;4992333;28;20449;-62
2023/10/10 06:25:21;;;;;;;3.30;3.10;;;22.70;48.50;;;;;;4988569;28;20467;-60
2023/10/10 06:27:54;;;;;;;3.77;3.47;;;22.70;48.50;;;;;;4985334;28;20560;-58
2023/10/10 06:30:24;;;;;;;3.47;3.27;;;22.70;48.50;;;;;;5010842;28;20452;-59
2023/10/10 06:32:50;;;;;;;3.90;3.70;;;22.70;48.50;;;;;;4998850;28;20465;-58
2023/10/10 06:37:54;;;;;;;3.30;3.10;;;22.70;48.50;;;;;;4994868;28;20457;-59
2023/10/10 06:40:28;;;;;;;3.33;3.13;;;22.70;48.50;;;;;;5001662;28;20546;-61
2023/10/10 06:42:57;;;;;;;3.20;3.00;;;22.70;48.50;;;;;;4997122;28;20950;-58
2023/10/10 06:45:34;;;;;;;3.53;3.33;;;22.70;48.50;;;;;;5009770;28;20468;-59
2023/10/10 06:48:01;;;;;;;3.00;2.80;;;22.70;48.50;;;;;;5000810;28;20488;-59
2023/10/10 06:50:31;;;;;;;3.30;3.10;;;22.70;48.50;;;;;;4996430;28;20454;-57
2023/10/10 06:52:58;;;;;;;3.00;2.80;;;22.70;48.50;;;;;;4992651;28;20469;-62
2023/10/10 06:55:27;;;;;;;3.00;2.80;;;22.70;48.40;;;;;;4996959;28;20449;-59
2023/10/10 06:57:59;;;;;;;3.50;3.30;;;22.70;48.40;;;;;;4996892;28;20454;-60
2023/10/10 07:00:53;;;;;;;2.87;2.67;;;22.70;48.50;;;;;;4988993;28;20457;-59
2023/10/10 07:03:30;;;;;;;3.20;3.00;;;22.70;48.50;;;;;;4989010;28;20500;-58
2023/10/10 07:05:55;;;;;;;4.00;3.07;;;22.70;48.50;;;;;;5006059;28;20578;-58
2023/10/10 07:08:34;;;;;;;3.47;3.20;;;22.70;48.40;;;;;;4998796;28;20938;-59
2023/10/10 07:10:59;;;;;;;3.37;3.17;;;22.70;48.40;;;;;;4996779;28;20235;-62
2023/10/10 07:13:29;;;;;;;3.60;3.40;;;22.70;48.40;;;;;;4991713;28;20470;-58
2023/10/10 07:15:56;;;;;;;4.07;3.77;;;22.70;48.40;;;;;;4994108;28;20339;-60
2023/10/10 07:18:25;;;;;;;3.53;3.30;;;22.70;48.40;;;;;;5009780;28;21285;-64
2023/10/10 07:21:04;;;;;;;3.40;3.20;;;22.70;49.20;;;;;;4994205;28;20960;-58
2023/10/10 07:23:37;;;;;;;3.30;3.10;;;22.70;48.40;;;;;;5008641;28;20452;-59
2023/10/10 07:26:18;;;;;;;3.00;2.80;;;22.70;49.20;;;;;;5012213;28;20675;-60
2023/10/10 07:28:49;;;;;;;3.37;3.17;;;22.70;48.40;;;;;;5006569;28;20449;-58
2023/10/10 07:31:20;;;;;;;3.70;3.50;;;22.70;48.30;;;;;;4986944;28;20478;-61
2023/10/10 07:33:55;;;;;;;3.20;3.00;;;22.70;48.30;;;;;;4999671;28;20500;-59
2023/10/10 07:36:25;;;;;;;3.33;3.10;;;22.70;48.40;;;;;;5001225;28;20454;-59
2023/10/10 07:38:54;;;;;;;3.03;2.83;;;22.70;48.40;;;;;;4997752;28;20461;-58
2023/10/10 07:41:28;;;;;;;3.00;2.80;;;22.70;48.30;;;;;;5013372;28;20464;-62
2023/10/10 07:43:58;;;;;;;3.90;3.70;;;22.70;48.30;;;;;;5001139;28;20461;-60
2023/10/10 07:46:27;;;;;;;3.60;3.40;;;22.70;48.30;;;;;;4992816;28;20509;-60
2023/10/10 07:48:54;;;;;;;3.67;3.47;;;22.70;48.30;;;;;;4995005;28;20460;-58
2023/10/10 07:51:29;;;;;;;3.70;3.50;;;22.70;48.30;;;;;;5006846;28;20546;-62
2023/10/10 07:54:01;;;;;;;3.43;3.23;;;22.70;48.30;;;;;;5003417;28;20475;-58
2023/10/10 07:56:30;;;;;;;4.13;3.93;;;22.80;48.50;;;;;;5012681;28;20990;-58
2023/10/10 07:58:57;;;;;;;3.43;3.23;;;22.70;48.40;;;;;;5003094;28;20530;-59
2023/10/10 08:01:23;;;;;;;3.40;3.20;;;22.70;48.40;;;;;;5008527;28;20461;-61
2023/10/10 08:03:49;;;;;;;3.73;3.43;;;22.70;48.40;;;;;;4992975;28;20454;-58
2023/10/10 08:06:18;;;;;;;3.50;3.30;;;22.70;48.30;;;;;;4995696;28;20448;-60
2023/10/10 08:08:48;;;;;;;3.67;3.47;;;22.70;48.40;;;;;;4996503;28;20961;-58
2023/10/10 08:11:24;;;;;;;4.03;3.80;;;22.70;48.30;;;;;;4990591;28;20537;-58
2023/10/10 08:13:49;;;;;;;4.00;3.70;;;22.70;48.40;;;;;;5002048;28;20550;-57
2023/10/10 08:16:29;;;;;;;3.67;3.47;;;22.70;48.30;;;;;;5013127;28;20447;-59
2023/10/10 08:18:55;;;;;;;3.83;3.63;;;22.70;48.30;;;;;;5011298;28;20238;-58
2023/10/10 08:21:24;;;;;;;4.00;3.70;;;22.70;48.40;;;;;;5005236;28;20478;-59
2023/10/10 08:23:56;;;;;;;3.40;3.20;;;22.80;48.50;;;;;;5007013;28;20456;-58
2023/10/10 08:26:26;;;;;;;3.17;2.97;;;22.70;48.30;;;;;;4997695;28;20590;-58
2023/10/10 08:28:52;;;;;;;3.40;3.20;;;22.70;48.40;;;;;;4996521;28;20505;-58
2023/10/10 08:31:18;;;;;;;3.50;3.20;;;22.70;48.30;;;;;;5001661;28;21179;-60
2023/10/10 08:33:46;;;;;;;4.13;3.77;;;22.70;48.30;;;;;;4989118;28;21023;-58
2023/10/10 08:36:24;;;;;;;3.40;3.20;;;22.70;48.30;;;;;;4990288;28;20541;-58
2023/10/10 08:38:56;;;;;;;3.63;3.40;;;22.80;48.30;;;;;;4994518;28;20456;-59
2023/10/10 08:41:30;;;;;;;3.63;3.43;;;22.80;48.50;;;;;;4992777;28;20831;-57
2023/10/10 08:44:01;;;;;;;3.90;3.70;;;22.80;49.20;;;;;;4987383;28;20452;-59
2023/10/10 08:46:40;;;;;;;3.73;3.43;;;22.80;48.40;;;;;;4990637;28;20453;-60
2023/10/10 08:49:06;;;;;;;3.53;3.33;;;22.80;48.40;;;;;;4993053;28;20472;-58
2023/10/10 08:51:33;;;;;;;3.37;3.17;;;22.80;48.40;;;;;;4996072;28;20962;-60
2023/10/10 08:54:09;;;;;;;3.77;3.47;;;22.80;48.40;;;;;;4995129;28;20477;-59
2023/10/10 08:56:41;;;;;;;3.43;3.23;;;22.80;48.50;;;;;;5005605;28;20525;-59
2023/10/10 08:59:11;;;;;;;3.63;3.43;;;22.80;48.40;;;;;;5005418;28;20471;-57
2023/10/10 09:01:36;;;;;;;3.60;3.40;;;22.80;48.40;;;;;;5010537;28;20449;-60
2023/10/10 09:04:03;;;;;;;3.20;3.00;;;22.80;48.40;;;;;;5015300;28;20457;-60
2023/10/10 09:07:00;;;;;;;3.30;3.10;;;22.80;48.40;;;;;;5006177;28;20219;-58
2023/10/10 09:09:40;;;;;;;3.30;3.10;;;22.80;48.40;;;;;;4996488;28;20461;-58
2023/10/10 09:12:14;;;;;;;3.47;3.27;;;22.80;48.40;;;;;;4991490;28;20477;-59
2023/10/10 09:14:50;;;;;;;3.17;2.97;;;22.80;48.40;;;;;;4994815;28;20470;-58
2023/10/10 09:17:35;;;;;;;3.20;3.00;;;22.80;48.50;;;;;;4995102;28;20972;-58
2023/10/10 09:20:17;;;;;;;3.13;2.93;;;22.80;48.50;;;;;;4997111;28;21090;-58
2023/10/10 09:22:44;;;;;;;3.27;3.07;;;22.80;48.50;;;;;;5001843;28;20471;-58
2023/10/10 09:25:19;;;;;;;3.20;3.00;;;22.80;48.50;;;;;;4995730;28;20499;-58
2023/10/10 09:28:07;;;;;;;3.67;3.40;;;22.80;48.50;;;;;;4995853;28;20487;-61
2023/10/10 09:30:49;;;;;;;2.97;2.80;;;22.80;48.50;;;;;;5002882;28;20488;-57
2023/10/10 09:33:29;;;;;;;3.43;3.23;;;22.80;48.50;;;;;;4998896;28;20468;-61
2023/10/10 09:36:15;;;;;;;3.60;3.40;;;22.80;48.50;;;;;;4998743;28;20844;-60
2023/10/10 09:38:53;;;;;;;3.03;2.83;;;22.80;48.50;;;;;;4991267;28;20473;-60
2023/10/10 09:41:36;;;;;;;3.37;3.17;;;22.80;48.50;;;;;;5003923;28;20469;-58
2023/10/10 09:49:43;;;;;;;3.27;3.07;;;22.80;48.50;;;;;;5003696;28;20798;-58
2023/10/10 09:57:48;;;;;;;3.40;3.20;;;22.80;48.50;;;;;;4998320;28;21112;-58
2023/10/10 10:00:14;;;;;;;3.37;3.17;;;22.80;48.50;;;;;;4996875;28;20460;-59
2023/10/10 10:02:48;;;;;;;3.27;3.07;;;22.80;48.50;;;;;;4994182;28;20466;-58
2023/10/10 10:05:18;;;;;;;3.27;3.07;;;22.80;48.50;;;;;;5000962;28;20696;-58
2023/10/10 10:07:58;;;;;;;3.00;2.80;;;22.80;48.60;;;;;;4994099;28;20461;-58
2023/10/10 10:10:54;;;;;;;3.03;2.83;;;22.80;48.50;;;;;;4992304;28;20468;-59
2023/10/10 10:13:37;;;;;;;2.77;2.67;;;22.80;48.60;;;;;;4991548;28;20589;-59
2023/10/10 10:16:35;;;;;;;3.47;3.20;;;22.80;48.50;;;;;;5008087;28;20825;-58
2023/10/10 10:19:12;;;;;;;3.17;2.97;;;22.80;48.50;;;;;;4998281;28;20521;-60
2023/10/10 10:22:14;;;;;;;3.20;3.00;;;22.80;48.60;;;;;;5011668;28;20461;-59
2023/10/10 10:24:52;;;;;;;3.20;3.00;;;22.80;48.60;;;;;;4991000;28;20591;-59
2023/10/10 10:27:42;;;;;;;3.27;3.07;;;22.80;48.50;;;;;;4992890;28;20566;-59
2023/10/10 10:32:49;;;;;;;3.20;3.00;;;22.80;48.50;;;;;;5000833;28;20448;-63
2023/10/10 10:35:22;;;;;;;3.17;2.97;;;22.80;48.50;;;;;;5001707;28;20471;-58
2023/10/10 10:37:55;;;;;;;3.07;2.87;;;22.80;48.50;;;;;;5012093;28;20507;-61
2023/10/10 10:43:14;;;;;;;2.50;2.40;;;22.80;48.50;;;;;;4994231;28;20654;-58
2023/10/10 10:45:44;;;;;;;3.20;3.00;;;22.80;48.50;;;;;;5006354;28;20542;-58
2023/10/10 10:48:30;;;;;;;2.93;2.73;;;22.80;48.50;;;;;;4998179;28;20492;-58
2023/10/10 10:51:26;;;;;;;3.20;3.00;;;22.80;48.50;;;;;;5000083;28;20453;-58
2023/10/10 10:54:02;;;;;;;3.23;2.93;;;22.80;48.50;;;;;;5005222;28;20472;-61
2023/10/10 10:59:13;;;;;;;3.40;3.20;;;22.80;48.50;;;;;;5002188;28;20870;-59
2023/10/10 11:01:57;;;;;;;3.10;2.90;;;22.80;48.50;;;;;;4993331;28;20952;-61
2023/10/10 11:07:03;;;;;;;3.57;3.37;;;22.80;48.50;;;;;;4995947;28;20907;-58
2023/10/10 11:09:32;;;;;;;3.60;3.40;;;22.80;48.50;;;;;;5003106;28;20835;-59
2023/10/10 11:12:02;;;;;;;3.20;2.60;;;22.80;48.40;;;;;;5008957;28;21013;-58
2023/10/10 11:14:36;;;;;;;3.20;3.00;;;22.90;48.50;;;;;;5001233;28;20449;-60
2023/10/10 11:17:02;;;;;;;2.90;2.70;;;22.90;48.50;;;;;;4993253;28;20568;-58
2023/10/10 11:21:56;;;;;;;3.20;3.00;;;22.90;48.50;;;;;;5007281;28;20463;-63
2023/10/10 11:24:25;;;;;;;3.83;3.43;;;22.90;48.40;;;;;;4993391;28;20461;-58
2023/10/10 11:27:07;;;;;;;2.93;2.73;;;22.90;48.50;;;;;;4991227;28;20593;-59
2023/10/10 11:29:47;;;;;;;3.20;3.00;;;22.90;48.50;;;;;;4993329;28;20474;-59
2023/10/10 11:32:15;;;;;;;3.37;3.17;;;22.90;48.50;;;;;;5002687;28;20559;-60
2023/10/10 11:34:44;;;;;;;2.80;2.60;;;22.90;48.50;;;;;;4994509;28;20495;-58
2023/10/10 11:37:21;;;;;;;3.03;2.83;;;22.90;48.50;;;;;;4992439;28;21048;-60
2023/10/10 11:39:47;;;;;;;3.20;3.00;;;22.90;48.50;;;;;;4995657;28;20464;-59
2023/10/10 11:42:35;;;;;;;3.03;2.83;;;22.90;48.50;;;;;;5013753;28;20530;-58
2023/10/10 11:45:03;;;;;;;3.10;2.80;;;22.90;48.30;;;;;;4990049;28;20472;-59
2023/10/10 11:47:28;;;;;;;3.13;2.93;;;22.90;48.30;;;;;;4993220;28;20816;-58
2023/10/10 11:50:02;;;;;;;2.97;2.77;;;22.90;48.40;;;;;;4989992;28;21263;-61
2023/10/10 11:52:28;;;;;;;3.70;3.50;;;22.90;48.40;;;;;;5000697;28;20322;-58
2023/10/10 11:54:55;;;;;;;3.20;3.00;;;22.90;48.30;;;;;;5010916;28;20460;-59
2023/10/10 11:57:21;;;;;;;3.30;3.10;;;22.90;48.40;;;;;;4993219;28;20456;-61
2023/10/10 11:59:47;;;;;;;3.60;3.33;;;22.90;48.40;;;;;;4999680;28;20452;-60
2023/10/10 12:02:18;;;;;;;3.80;3.60;;;22.90;48.50;;;;;;5003105;28;20219;-63
2023/10/10 12:04:46;;;;;;;3.43;3.23;;;22.90;48.30;;;;;;5003871;28;20305;-62
2023/10/10 12:07:14;;;;;;;2.83;2.63;;;22.90;48.30;;;;;;4996813;28;20461;-58
2023/10/10 12:09:45;;;;;;;4.03;3.10;;;22.90;48.40;;;;;;4997729;28;20471;-59
2023/10/10 12:12:11;;;;;;;2.83;2.70;;;22.90;48.30;;;;;;4995415;28;20480;-58
2023/10/10 12:14:36;;;;;;;2.90;2.70;;;22.90;48.30;;;;;;4994519;28;20460;-59
2023/10/10 12:17:05;;;;;;;3.30;3.10;;;22.90;48.30;;;;;;5002202;28;20534;-60
2023/10/10 12:19:36;;;;;;;3.40;3.20;;;22.90;48.30;;;;;;5013476;28;20223;-58
2023/10/10 12:22:07;;;;;;;3.30;3.10;;;22.90;48.30;;;;;;4993733;28;20995;-59
2023/10/10 12:24:34;;;;;;;3.30;3.10;;;22.90;48.30;;;;;;4992645;28;20484;-58
2023/10/10 12:27:01;;;;;;;3.40;3.10;;;22.90;48.30;;;;;;4994460;28;20499;-60
2023/10/10 12:29:30;;;;;;;3.10;2.80;;;22.90;48.30;;;;;;4995898;28;20496;-63
2023/10/10 12:31:56;;;;;;;3.53;3.23;;;22.90;48.30;;;;;;4997153;28;20449;-59
2023/10/10 12:34:23;;;;;;;2.97;2.77;;;22.90;48.20;;;;;;4995132;28;20490;-59
2023/10/10 12:36:58;;;;;;;3.90;3.70;;;22.90;48.20;;;;;;4994578;28;20458;-60
2023/10/10 12:39:27;;;;;;;3.00;2.80;;;22.90;49.00;;;;;;4999557;28;20928;-59
2023/10/10 12:41:53;;;;;;;2.90;2.70;;;22.90;48.20;;;;;;4998183;28;20465;-58
2023/10/10 12:44:19;;;;;;;3.20;3.00;;;22.90;48.20;;;;;;5008495;28;20515;-59
2023/10/10 12:46:45;;;;;;;3.10;2.90;;;22.90;48.30;;;;;;4997563;28;20469;-59
2023/10/10 12:49:11;;;;;;;3.23;3.03;;;22.90;48.20;;;;;;5009570;28;20494;-59
2023/10/10 12:51:38;;;;;;;3.20;3.00;;;22.90;48.20;;;;;;5006129;28;20239;-61
2023/10/10 12:54:09;;;;;;;3.30;3.10;;;22.90;48.20;;;;;;4991745;28;20480;-59
2023/10/10 12:56:48;;;;;;;3.30;3.10;;;22.90;48.20;;;;;;4996601;28;20449;-58
2023/10/10 12:59:15;;;;;;;3.10;2.90;;;22.90;48.30;;;;;;5008593;28;20448;-59
2023/10/10 13:01:41;;;;;;;3.47;3.17;;;22.90;48.20;;;;;;5000539;28;20464;-63
2023/10/10 13:04:07;;;;;;;6.70;3.47;;;22.90;48.30;;;;;;5011345;28;20457;-58
2023/10/10 13:06:35;;;;;;;3.37;3.17;;;22.90;48.20;;;;;;5014849;28;20660;-59
2023/10/10 13:09:05;;;;;;;2.80;2.60;;;22.90;48.30;;;;;;5010410;28;20465;-58
2023/10/10 13:11:35;;;;;;;3.10;2.90;;;22.90;48.20;;;;;;4995265;28;20457;-60
2023/10/10 13:14:14;;;;;;;3.03;2.83;;;22.90;48.30;;;;;;5001863;28;20469;-60
2023/10/10 13:19:09;;;;;;;3.33;3.13;;;22.90;48.20;;;;;;5000912;28;20465;-66
2023/10/10 13:21:42;;;;;;;3.33;3.13;;;22.90;48.30;;;;;;4993692;28;20464;-60
2023/10/10 13:24:13;;;;;;;3.00;2.80;;;22.90;48.20;;;;;;4996327;28;21036;-59
2023/10/10 13:26:39;;;;;;;3.13;2.93;;;22.90;48.30;;;;;;4991698;28;20536;-59
2023/10/10 13:29:06;;;;;;;3.50;3.30;;;22.90;48.20;;;;;;4994329;28;20488;-59
2023/10/10 13:31:32;;;;;;;3.23;3.03;;;22.90;48.30;;;;;;4993303;28;20976;-58
2023/10/10 13:33:58;;;;;;;3.70;3.50;;;22.90;48.30;;;;;;4994221;28;20484;-61
2023/10/10 13:36:24;;;;;;;3.13;2.93;;;22.90;48.20;;;;;;4996439;28;20231;-58
2023/10/10 13:38:51;;;;;;;3.30;3.10;;;22.90;48.20;;;;;;5001522;28;21083;-59
2023/10/10 13:41:18;;;;;;;3.63;3.33;;;22.90;48.20;;;;;;4994090;28;20560;-58
2023/10/10 13:43:51;;;;;;;3.27;3.07;;;22.90;48.20;;;;;;4999790;28;22020;-60
2023/10/10 13:46:18;;;;;;;3.30;3.10;;;22.90;48.20;;;;;;4997190;28;20453;-58
2023/10/10 13:48:45;;;;;;;3.03;2.80;;;22.90;48.20;;;;;;4997129;28;20553;-58
2023/10/10 13:51:13;;;;;;;3.03;2.83;;;22.90;49.00;;;;;;5010031;28;20460;-61
2023/10/10 13:53:40;;;;;;;2.97;2.77;;;22.90;48.20;;;;;;4998901;28;20469;-58
2023/10/10 13:56:07;;;;;;;3.30;3.07;;;22.90;48.20;;;;;;4985076;28;20966;-60
2023/10/10 13:58:33;;;;;;;3.20;3.00;;;22.90;48.20;;;;;;4994443;28;20465;-60
2023/10/10 14:01:14;;;;;;;3.00;2.80;;;22.90;48.20;;;;;;4994321;28;20536;-58
2023/10/10 14:03:45;;;;;;;2.83;2.63;;;22.90;48.20;;;;;;5002891;28;20510;-58
2023/10/10 14:06:16;;;;;;;3.10;2.90;;;22.90;48.10;;;;;;4991868;28;20473;-60
2023/10/10 14:08:47;;;;;;;2.63;2.53;;;22.90;48.20;;;;;;4992091;28;20467;-58
2023/10/10 14:11:20;;;;;;;3.53;3.33;;;22.90;48.20;;;;;;5003727;28;20496;-61
2023/10/10 14:13:47;;;;;;;3.20;2.90;;;22.90;48.10;;;;;;4996031;28;20473;-59
2023/10/10 14:16:13;;;;;;;3.20;2.90;;;22.90;48.20;;;;;;5000514;28;20461;-59
2023/10/10 14:18:51;;;;;;;2.97;2.77;;;22.90;48.30;;;;;;4993242;28;20496;-59
2023/10/10 14:21:24;;;;;;;3.20;3.00;;;22.90;48.90;;;;;;4997218;28;20225;-58
2023/10/10 14:23:54;;;;;;;3.00;2.80;;;22.90;48.20;;;;;;4997842;28;20461;-58
2023/10/10 14:26:26;;;;;;;3.77;3.47;;;22.90;48.10;;;;;;5006265;28;20469;-58
2023/10/10 14:28:52;;;;;;;2.97;2.80;;;22.90;48.20;;;;;;4994515;28;20961;-58
2023/10/10 14:31:22;;;;;;;3.27;3.07;;;22.90;48.10;;;;;;4993976;28;20458;-58
2023/10/10 14:33:51;;;;;;;3.00;2.80;;;22.90;48.20;;;;;;4994127;28;20496;-60
2023/10/10 14:36:17;;;;;;;3.20;3.00;;;22.90;49.00;;;;;;4995574;28;20458;-59
2023/10/10 14:38:47;;;;;;;2.60;2.40;;;22.90;48.10;;;;;;4995077;28;20480;-61
2023/10/10 14:41:18;;;;;;;3.00;2.80;;;23.00;48.20;;;;;;4993638;28;20474;-59
2023/10/10 14:43:47;;;;;;;3.00;2.80;;;22.90;48.10;;;;;;4994106;28;20461;-59
2023/10/10 14:46:17;;;;;;;3.17;2.97;;;22.90;48.20;;;;;;5007738;28;20480;-59
2023/10/10 14:48:42;;;;;;;3.30;3.10;;;22.90;48.10;;;;;;5012668;28;20460;-58
2023/10/10 14:51:17;;;;;;;3.20;3.00;;;22.90;48.10;;;;;;5001699;28;20592;-60
2023/10/10 14:53:42;;;;;;;3.27;3.07;;;22.90;48.10;;;;;;4990215;28;20469;-59
2023/10/10 14:56:08;;;;;;;3.27;3.07;;;22.90;48.20;;;;;;4993378;28;20820;-58
2023/10/10 14:58:35;;;;;;;3.73;3.20;;;22.90;48.10;;;;;;5002118;28;20226;-62
2023/10/10 15:01:02;;;;;;;3.30;3.00;;;22.90;48.20;;;;;;5001248;28;20787;-60
2023/10/10 15:03:30;;;;;;;3.17;2.97;;;22.90;48.10;;;;;;4993831;28;20453;-59
2023/10/10 15:06:06;;;;;;;2.90;2.70;;;22.90;48.10;;;;;;4994960;28;20533;-58
2023/10/10 15:08:31;;;;;;;3.00;2.70;;;22.90;48.10;;;;;;4992721;28;21020;-60
2023/10/10 15:10:57;;;;;;;3.60;3.40;;;22.90;48.10;;;;;;4996165;28;20453;-61
2023/10/10 15:13:25;;;;;;;2.93;2.73;;;22.90;48.10;;;;;;4993998;28;20255;-58
2023/10/10 15:15:51;;;;;;;3.37;3.07;;;22.90;48.10;;;;;;5003237;28;20216;-58
2023/10/10 15:18:18;;;;;;;3.17;2.97;;;22.90;48.10;;;;;;4993803;28;20515;-58
2023/10/10 15:20:46;;;;;;;3.10;2.90;;;22.90;48.10;;;;;;5004664;28;20305;-58
2023/10/10 15:23:20;;;;;;;2.93;2.73;;;22.90;48.10;;;;;;5011981;28;20523;-58
2023/10/10 15:25:53;;;;;;;3.07;2.87;;;22.90;48.10;;;;;;5011282;28;20472;-60
2023/10/10 15:28:19;;;;;;;2.53;2.33;;;22.90;48.10;;;;;;4992193;28;20484;-58
2023/10/10 15:30:44;;;;;;;2.97;2.77;;;22.90;48.10;;;;;;4991299;28;20723;-59
2023/10/10 15:33:10;;;;;;;2.47;2.37;;;22.90;48.10;;;;;;4991047;28;20463;-59
2023/10/10 15:35:39;;;;;;;3.53;3.30;;;22.90;48.10;;;;;;4995834;28;20584;-61
2023/10/10 15:38:11;;;;;;;3.50;3.30;;;23.00;48.20;;;;;;4991713;28;20224;-59
2023/10/10 15:40:40;;;;;;;2.80;2.60;;;22.90;48.10;;;;;;4995206;28;20472;-59
2023/10/10 15:43:13;;;;;;;3.43;2.87;;;22.90;48.10;;;;;;5004387;28;20477;-62
2023/10/10 15:45:42;;;;;;;2.90;2.70;;;22.90;48.10;;;;;;4997020;28;20950;-59
2023/10/10 15:48:21;;;;;;;3.23;3.03;;;22.90;48.20;;;;;;4991940;28;21214;-58